sensor_id;sensor_type;location;lat;lon;timestamp;temperature;humidity
65692;DHT22;52411;52.716;6.696;2022-09-13T00:00:51;18.10;99.90
65692;DHT22;52411;52.716;6.696;2022-09-13T00:03:18;18.00;99.90
65692;DHT22;52411;52.716;6.696;2022-09-13T00:05:44;17.90;99.90
65692;DHT22;52411;52.716;6.696;2022-09-13T00:08:11;17.80;99.90
65692;DHT22;52411;52.716;6.696;2022-09-13T00:10:38;17.80;99.90
65692;DHT22;52411;52.716;6.696;2022-09-13T00:13:05;17.70;99.90
65692;DHT22;52411;52.716;6.696;2022-09-13T00:15:31;17.70;99.90
65692;DHT22;52411;52.716;6.696;2022-09-13T00:17:56;17.60;99.90
65692;DHT22;52411;52.716;6.696;2022-09-13T00:20:22;17.60;99.90
65692;DHT22;52411;52.716;6.696;2022-09-13T00:22:48;17.60;99.90
65692;DHT22;52411;52.716;6.696;2022-09-13T00:25:14;17.50;99.90
65692;DHT22;52411;52.716;6.696;2022-09-13T00:27:39;17.50;99.90
65692;DHT22;52411;52.716;6.696;2022-09-13T00:30:06;17.50;99.90
65692;DHT22;52411;52.716;6.696;2022-09-13T00:32:35;17.50;99.90
65692;DHT22;52411;52.716;6.696;2022-09-13T00:35:02;17.50;99.90
65692;DHT22;52411;52.716;6.696;2022-09-13T00:37:28;17.50;99.90
65692;DHT22;52411;52.716;6.696;2022-09-13T00:39:54;17.50;99.90
65692;DHT22;52411;52.716;6.696;2022-09-13T00:42:25;17.50;99.90
65692;DHT22;52411;52.716;6.696;2022-09-13T00:44:57;17.50;99.90
65692;DHT22;52411;52.716;6.696;2022-09-13T00:47:33;17.50;99.90
65692;DHT22;52411;52.716;6.696;2022-09-13T00:50:18;17.50;99.90
65692;DHT22;52411;52.716;6.696;2022-09-13T00:52:58;17.50;99.90
65692;DHT22;52411;52.716;6.696;2022-09-13T00:55:30;17.50;99.90
65692;DHT22;52411;52.716;6.696;2022-09-13T00:58:01;17.50;99.90
65692;DHT22;52411;52.716;6.696;2022-09-13T01:00:29;17.50;99.90
65692;DHT22;52411;52.716;6.696;2022-09-13T01:02:59;17.40;99.90
65692;DHT22;52411;52.716;6.696;2022-09-13T01:05:31;17.40;99.90
65692;DHT22;52411;52.716;6.696;2022-09-13T01:07:59;17.40;99.90
65692;DHT22;52411;52.716;6.696;2022-09-13T01:10:25;17.40;99.90
65692;DHT22;52411;52.716;6.696;2022-09-13T01:12:59;17.40;99.90
65692;DHT22;52411;52.716;6.696;2022-09-13T01:15:26;17.40;99.90
65692;DHT22;52411;52.716;6.696;2022-09-13T01:17:53;17.40;99.90
65692;DHT22;52411;52.716;6.696;2022-09-13T01:20:21;17.40;99.90
65692;DHT22;52411;52.716;6.696;2022-09-13T01:28:51;17.40;99.90
65692;DHT22;52411;52.716;6.696;2022-09-13T01:36:53;17.30;99.90
65692;DHT22;52411;52.716;6.696;2022-09-13T01:39:38;17.30;99.90
65692;DHT22;52411;52.716;6.696;2022-09-13T01:42:21;17.20;99.90
65692;DHT22;52411;52.716;6.696;2022-09-13T01:45:12;17.20;99.90
65692;DHT22;52411;52.716;6.696;2022-09-13T01:48:07;17.20;99.90
65692;DHT22;52411;52.716;6.696;2022-09-13T01:51:42;17.20;99.90
65692;DHT22;52411;52.716;6.696;2022-09-13T01:59:15;17.20;99.90
65692;DHT22;52411;52.716;6.696;2022-09-13T02:01:47;17.10;99.90
65692;DHT22;52411;52.716;6.696;2022-09-13T02:04:21;17.10;99.90
65692;DHT22;52411;52.716;6.696;2022-09-13T02:07:10;17.10;99.90
65692;DHT22;52411;52.716;6.696;2022-09-13T02:09:41;17.20;99.90
65692;DHT22;52411;52.716;6.696;2022-09-13T02:12:20;17.20;99.90
65692;DHT22;52411;52.716;6.696;2022-09-13T02:14:55;17.20;99.90
65692;DHT22;52411;52.716;6.696;2022-09-13T02:17:26;17.20;99.90
65692;DHT22;52411;52.716;6.696;2022-09-13T02:20:02;17.20;99.90
65692;DHT22;52411;52.716;6.696;2022-09-13T02:22:34;17.20;99.90
65692;DHT22;52411;52.716;6.696;2022-09-13T02:25:15;17.10;99.90
65692;DHT22;52411;52.716;6.696;2022-09-13T02:27:47;17.10;99.90
65692;DHT22;52411;52.716;6.696;2022-09-13T02:30:14;17.10;99.90
65692;DHT22;52411;52.716;6.696;2022-09-13T02:35:39;17.00;99.90
65692;DHT22;52411;52.716;6.696;2022-09-13T02:38:19;17.00;99.90
65692;DHT22;52411;52.716;6.696;2022-09-13T02:40:54;17.10;99.90
65692;DHT22;52411;52.716;6.696;2022-09-13T02:43:44;17.10;99.90
65692;DHT22;52411;52.716;6.696;2022-09-13T02:46:24;17.10;99.90
65692;DHT22;52411;52.716;6.696;2022-09-13T02:49:10;17.10;99.90
65692;DHT22;52411;52.716;6.696;2022-09-13T02:54:43;17.20;99.90
65692;DHT22;52411;52.716;6.696;2022-09-13T02:57:20;17.20;99.90
65692;DHT22;52411;52.716;6.696;2022-09-13T02:59:51;17.20;99.90
65692;DHT22;52411;52.716;6.696;2022-09-13T03:02:18;17.20;99.90
65692;DHT22;52411;52.716;6.696;2022-09-13T03:04:46;17.20;99.90
65692;DHT22;52411;52.716;6.696;2022-09-13T03:07:14;17.20;99.90
65692;DHT22;52411;52.716;6.696;2022-09-13T03:09:46;17.20;99.90
65692;DHT22;52411;52.716;6.696;2022-09-13T03:17:38;17.20;99.90
65692;DHT22;52411;52.716;6.696;2022-09-13T03:21:04;17.20;99.90
65692;DHT22;52411;52.716;6.696;2022-09-13T03:23:26;17.20;99.90
65692;DHT22;52411;52.716;6.696;2022-09-13T03:28:54;17.20;99.90
65692;DHT22;52411;52.716;6.696;2022-09-13T03:31:48;17.30;99.90
65692;DHT22;52411;52.716;6.696;2022-09-13T03:37:09;17.20;99.90
65692;DHT22;52411;52.716;6.696;2022-09-13T03:39:42;17.30;99.90
65692;DHT22;52411;52.716;6.696;2022-09-13T03:42:16;17.30;99.90
65692;DHT22;52411;52.716;6.696;2022-09-13T03:44:45;17.30;99.90
65692;DHT22;52411;52.716;6.696;2022-09-13T03:47:13;17.30;99.90
65692;DHT22;52411;52.716;6.696;2022-09-13T03:49:40;17.30;99.90
65692;DHT22;52411;52.716;6.696;2022-09-13T03:52:06;17.30;99.90
65692;DHT22;52411;52.716;6.696;2022-09-13T03:54:35;17.30;99.90
65692;DHT22;52411;52.716;6.696;2022-09-13T03:57:15;17.30;99.90
65692;DHT22;52411;52.716;6.696;2022-09-13T03:59:55;17.30;99.90
65692;DHT22;52411;52.716;6.696;2022-09-13T04:02:23;17.30;99.90
65692;DHT22;52411;52.716;6.696;2022-09-13T04:04:49;17.30;99.90
65692;DHT22;52411;52.716;6.696;2022-09-13T04:07:17;17.30;99.90
65692;DHT22;52411;52.716;6.696;2022-09-13T04:09:43;17.30;99.90
65692;DHT22;52411;52.716;6.696;2022-09-13T04:12:10;17.30;99.90
65692;DHT22;52411;52.716;6.696;2022-09-13T04:14:36;17.30;99.90
65692;DHT22;52411;52.716;6.696;2022-09-13T04:17:02;17.30;99.90
65692;DHT22;52411;52.716;6.696;2022-09-13T04:19:28;17.30;99.90
65692;DHT22;52411;52.716;6.696;2022-09-13T04:21:54;17.30;99.90
65692;DHT22;52411;52.716;6.696;2022-09-13T04:24:24;17.30;99.90
65692;DHT22;52411;52.716;6.696;2022-09-13T04:26:51;17.30;99.90
65692;DHT22;52411;52.716;6.696;2022-09-13T04:29:18;17.30;99.90
65692;DHT22;52411;52.716;6.696;2022-09-13T04:31:47;17.30;99.90
65692;DHT22;52411;52.716;6.696;2022-09-13T04:34:14;17.30;99.90
65692;DHT22;52411;52.716;6.696;2022-09-13T04:36:40;17.30;99.90
65692;DHT22;52411;52.716;6.696;2022-09-13T04:39:06;17.30;99.90
65692;DHT22;52411;52.716;6.696;2022-09-13T04:41:31;17.30;99.90
65692;DHT22;52411;52.716;6.696;2022-09-13T04:44:02;17.30;99.90
65692;DHT22;52411;52.716;6.696;2022-09-13T04:46:28;17.30;99.90
65692;DHT22;52411;52.716;6.696;2022-09-13T04:48:54;17.30;99.90
65692;DHT22;52411;52.716;6.696;2022-09-13T04:51:20;17.30;99.90
65692;DHT22;52411;52.716;6.696;2022-09-13T04:53:50;17.30;99.90
65692;DHT22;52411;52.716;6.696;2022-09-13T04:56:17;17.30;99.90
65692;DHT22;52411;52.716;6.696;2022-09-13T04:58:44;17.30;99.90
65692;DHT22;52411;52.716;6.696;2022-09-13T05:01:10;17.30;99.90
65692;DHT22;52411;52.716;6.696;2022-09-13T05:03:36;17.30;99.90
65692;DHT22;52411;52.716;6.696;2022-09-13T05:06:07;17.30;99.90
65692;DHT22;52411;52.716;6.696;2022-09-13T05:08:34;17.30;99.90
65692;DHT22;52411;52.716;6.696;2022-09-13T05:11:00;17.30;99.90
65692;DHT22;52411;52.716;6.696;2022-09-13T05:13:26;17.30;99.90
65692;DHT22;52411;52.716;6.696;2022-09-13T05:15:56;17.30;99.90
65692;DHT22;52411;52.716;6.696;2022-09-13T05:18:24;17.40;99.90
65692;DHT22;52411;52.716;6.696;2022-09-13T05:20:53;17.40;99.90
65692;DHT22;52411;52.716;6.696;2022-09-13T05:23:19;17.40;99.90
65692;DHT22;52411;52.716;6.696;2022-09-13T05:25:45;17.40;99.90
65692;DHT22;52411;52.716;6.696;2022-09-13T05:28:17;17.50;99.90
65692;DHT22;52411;52.716;6.696;2022-09-13T05:30:42;17.50;99.90
65692;DHT22;52411;52.716;6.696;2022-09-13T05:33:08;17.50;99.90
65692;DHT22;52411;52.716;6.696;2022-09-13T05:35:34;17.50;99.90
65692;DHT22;52411;52.716;6.696;2022-09-13T05:37:59;17.50;99.90
65692;DHT22;52411;52.716;6.696;2022-09-13T05:40:25;17.60;99.90
65692;DHT22;52411;52.716;6.696;2022-09-13T05:42:52;17.60;99.90
65692;DHT22;52411;52.716;6.696;2022-09-13T05:45:17;17.60;99.90
65692;DHT22;52411;52.716;6.696;2022-09-13T05:47:43;17.60;99.90
65692;DHT22;52411;52.716;6.696;2022-09-13T05:50:09;17.60;99.90
65692;DHT22;52411;52.716;6.696;2022-09-13T05:52:35;17.60;99.90
65692;DHT22;52411;52.716;6.696;2022-09-13T05:55:01;17.60;99.90
65692;DHT22;52411;52.716;6.696;2022-09-13T05:57:27;17.70;99.90
65692;DHT22;52411;52.716;6.696;2022-09-13T05:59:52;17.70;99.90
65692;DHT22;52411;52.716;6.696;2022-09-13T06:02:18;17.80;99.90
65692;DHT22;52411;52.716;6.696;2022-09-13T06:04:43;17.80;99.90
65692;DHT22;52411;52.716;6.696;2022-09-13T06:07:11;17.80;99.90
65692;DHT22;52411;52.716;6.696;2022-09-13T06:09:36;17.80;99.90
65692;DHT22;52411;52.716;6.696;2022-09-13T06:12:02;17.90;99.90
65692;DHT22;52411;52.716;6.696;2022-09-13T06:14:28;17.90;99.90
65692;DHT22;52411;52.716;6.696;2022-09-13T06:16:53;17.90;99.90
65692;DHT22;52411;52.716;6.696;2022-09-13T06:19:19;17.90;99.90
65692;DHT22;52411;52.716;6.696;2022-09-13T06:21:45;18.00;99.90
65692;DHT22;52411;52.716;6.696;2022-09-13T06:24:10;18.00;99.90
65692;DHT22;52411;52.716;6.696;2022-09-13T06:26:36;18.10;99.90
65692;DHT22;52411;52.716;6.696;2022-09-13T06:29:01;18.10;99.90
65692;DHT22;52411;52.716;6.696;2022-09-13T06:31:27;18.10;99.90
65692;DHT22;52411;52.716;6.696;2022-09-13T06:33:58;18.10;99.90
65692;DHT22;52411;52.716;6.696;2022-09-13T06:36:24;18.20;99.90
65692;DHT22;52411;52.716;6.696;2022-09-13T06:38:50;18.20;99.90
65692;DHT22;52411;52.716;6.696;2022-09-13T06:41:17;18.20;99.90
65692;DHT22;52411;52.716;6.696;2022-09-13T06:43:43;18.20;99.90
65692;DHT22;52411;52.716;6.696;2022-09-13T06:46:15;18.20;99.90
65692;DHT22;52411;52.716;6.696;2022-09-13T06:48:42;18.20;99.90
65692;DHT22;52411;52.716;6.696;2022-09-13T06:51:17;18.20;99.90
65692;DHT22;52411;52.716;6.696;2022-09-13T06:53:44;18.30;99.90
65692;DHT22;52411;52.716;6.696;2022-09-13T06:56:14;18.30;99.90
65692;DHT22;52411;52.716;6.696;2022-09-13T06:58:42;18.30;99.90
65692;DHT22;52411;52.716;6.696;2022-09-13T07:01:10;18.30;99.90
65692;DHT22;52411;52.716;6.696;2022-09-13T07:04:01;18.20;99.90
65692;DHT22;52411;52.716;6.696;2022-09-13T07:06:29;18.20;99.90
65692;DHT22;52411;52.716;6.696;2022-09-13T07:08:57;18.20;99.90
65692;DHT22;52411;52.716;6.696;2022-09-13T07:11:25;18.10;99.90
65692;DHT22;52411;52.716;6.696;2022-09-13T07:13:55;18.10;99.90
65692;DHT22;52411;52.716;6.696;2022-09-13T07:16:24;18.00;99.90
65692;DHT22;52411;52.716;6.696;2022-09-13T07:18:51;18.00;99.90
65692;DHT22;52411;52.716;6.696;2022-09-13T07:21:17;17.90;99.90
65692;DHT22;52411;52.716;6.696;2022-09-13T07:23:43;17.90;99.90
65692;DHT22;52411;52.716;6.696;2022-09-13T07:26:08;17.80;99.90
65692;DHT22;52411;52.716;6.696;2022-09-13T07:28:43;17.80;99.90
65692;DHT22;52411;52.716;6.696;2022-09-13T07:31:13;17.80;99.90
65692;DHT22;52411;52.716;6.696;2022-09-13T07:33:40;17.80;99.90
65692;DHT22;52411;52.716;6.696;2022-09-13T07:36:07;17.90;99.90
65692;DHT22;52411;52.716;6.696;2022-09-13T07:38:35;17.90;99.90
65692;DHT22;52411;52.716;6.696;2022-09-13T07:41:02;17.90;99.90
65692;DHT22;52411;52.716;6.696;2022-09-13T07:43:34;17.90;99.90
65692;DHT22;52411;52.716;6.696;2022-09-13T07:46:05;17.90;99.90
65692;DHT22;52411;52.716;6.696;2022-09-13T07:48:32;17.90;99.90
65692;DHT22;52411;52.716;6.696;2022-09-13T07:51:07;18.00;99.90
65692;DHT22;52411;52.716;6.696;2022-09-13T07:53:34;18.20;99.90
65692;DHT22;52411;52.716;6.696;2022-09-13T07:56:06;18.30;99.90
65692;DHT22;52411;52.716;6.696;2022-09-13T07:58:32;18.40;99.90
65692;DHT22;52411;52.716;6.696;2022-09-13T08:03:35;18.60;99.90
65692;DHT22;52411;52.716;6.696;2022-09-13T08:06:02;18.70;99.90
65692;DHT22;52411;52.716;6.696;2022-09-13T08:08:29;18.80;99.90
65692;DHT22;52411;52.716;6.696;2022-09-13T08:10:55;18.90;99.90
65692;DHT22;52411;52.716;6.696;2022-09-13T08:13:21;18.90;99.90
65692;DHT22;52411;52.716;6.696;2022-09-13T08:15:47;19.00;99.90
65692;DHT22;52411;52.716;6.696;2022-09-13T08:18:14;19.00;99.90
65692;DHT22;52411;52.716;6.696;2022-09-13T08:20:40;19.10;99.90
65692;DHT22;52411;52.716;6.696;2022-09-13T08:23:06;19.10;99.90
65692;DHT22;52411;52.716;6.696;2022-09-13T08:25:34;19.10;99.90
65692;DHT22;52411;52.716;6.696;2022-09-13T08:30:33;19.30;99.90
65692;DHT22;52411;52.716;6.696;2022-09-13T08:33:02;19.30;99.90
65692;DHT22;52411;52.716;6.696;2022-09-13T08:35:28;19.40;99.90
65692;DHT22;52411;52.716;6.696;2022-09-13T08:37:54;19.40;99.90
65692;DHT22;52411;52.716;6.696;2022-09-13T08:40:21;19.50;99.90
65692;DHT22;52411;52.716;6.696;2022-09-13T08:45:23;19.50;99.90
65692;DHT22;52411;52.716;6.696;2022-09-13T08:47:53;19.50;99.90
65692;DHT22;52411;52.716;6.696;2022-09-13T08:50:32;19.50;99.90
65692;DHT22;52411;52.716;6.696;2022-09-13T08:55:50;19.50;99.90
65692;DHT22;52411;52.716;6.696;2022-09-13T09:01:07;19.60;99.90
65692;DHT22;52411;52.716;6.696;2022-09-13T09:03:51;19.70;99.90
65692;DHT22;52411;52.716;6.696;2022-09-13T09:06:19;19.80;99.90
65692;DHT22;52411;52.716;6.696;2022-09-13T09:08:50;20.00;99.90
65692;DHT22;52411;52.716;6.696;2022-09-13T09:11:28;20.20;99.90
65692;DHT22;52411;52.716;6.696;2022-09-13T09:14:04;20.20;99.90
65692;DHT22;52411;52.716;6.696;2022-09-13T09:16:36;20.20;99.90
65692;DHT22;52411;52.716;6.696;2022-09-13T09:21:39;20.10;99.90
65692;DHT22;52411;52.716;6.696;2022-09-13T09:24:05;20.10;99.90
65692;DHT22;52411;52.716;6.696;2022-09-13T09:26:31;20.10;99.90
65692;DHT22;52411;52.716;6.696;2022-09-13T09:29:20;20.00;99.90
65692;DHT22;52411;52.716;6.696;2022-09-13T09:37:21;20.10;99.90
65692;DHT22;52411;52.716;6.696;2022-09-13T09:39:53;20.10;99.90
65692;DHT22;52411;52.716;6.696;2022-09-13T09:42:23;20.30;99.90
65692;DHT22;52411;52.716;6.696;2022-09-13T09:44:56;20.30;99.90
65692;DHT22;52411;52.716;6.696;2022-09-13T09:47:41;20.30;99.90
65692;DHT22;52411;52.716;6.696;2022-09-13T09:50:24;20.40;99.90
65692;DHT22;52411;52.716;6.696;2022-09-13T09:53:13;20.40;99.90
65692;DHT22;52411;52.716;6.696;2022-09-13T09:58:16;20.70;99.90
65692;DHT22;52411;52.716;6.696;2022-09-13T10:00:54;20.70;99.90
65692;DHT22;52411;52.716;6.696;2022-09-13T10:03:39;20.60;99.90
65692;DHT22;52411;52.716;6.696;2022-09-13T10:06:14;20.40;99.90
65692;DHT22;52411;52.716;6.696;2022-09-13T10:08:53;20.40;99.90
65692;DHT22;52411;52.716;6.696;2022-09-13T10:11:20;20.30;99.90
65692;DHT22;52411;52.716;6.696;2022-09-13T10:14:01;20.40;99.90
65692;DHT22;52411;52.716;6.696;2022-09-13T10:16:28;20.50;99.90
65692;DHT22;52411;52.716;6.696;2022-09-13T10:19:23;20.60;99.90
65692;DHT22;52411;52.716;6.696;2022-09-13T10:22:03;20.90;99.90
65692;DHT22;52411;52.716;6.696;2022-09-13T10:24:30;21.10;99.90
65692;DHT22;52411;52.716;6.696;2022-09-13T10:26:57;21.00;99.90
65692;DHT22;52411;52.716;6.696;2022-09-13T10:29:25;20.60;99.90
65692;DHT22;52411;52.716;6.696;2022-09-13T10:31:52;20.40;99.90
65692;DHT22;52411;52.716;6.696;2022-09-13T10:34:33;20.30;99.90
65692;DHT22;52411;52.716;6.696;2022-09-13T10:37:03;20.20;99.90
65692;DHT22;52411;52.716;6.696;2022-09-13T10:39:32;20.30;99.90
65692;DHT22;52411;52.716;6.696;2022-09-13T10:42:03;20.50;99.90
65692;DHT22;52411;52.716;6.696;2022-09-13T10:47:04;20.90;99.90
65692;DHT22;52411;52.716;6.696;2022-09-13T10:49:47;21.10;99.90
65692;DHT22;52411;52.716;6.696;2022-09-13T10:52:34;21.20;99.90
65692;DHT22;52411;52.716;6.696;2022-09-13T10:57:55;21.40;99.90
65692;DHT22;52411;52.716;6.696;2022-09-13T11:01:03;21.20;99.90
65692;DHT22;52411;52.716;6.696;2022-09-13T11:03:58;21.10;99.90
65692;DHT22;52411;52.716;6.696;2022-09-13T11:06:40;21.10;99.90
65692;DHT22;52411;52.716;6.696;2022-09-13T11:09:20;21.20;99.90
65692;DHT22;52411;52.716;6.696;2022-09-13T11:12:13;21.50;99.90
65692;DHT22;52411;52.716;6.696;2022-09-13T11:15:05;21.50;99.90
65692;DHT22;52411;52.716;6.696;2022-09-13T11:30:25;21.40;99.90
65692;DHT22;52411;52.716;6.696;2022-09-13T11:38:46;21.60;99.90
65692;DHT22;52411;52.716;6.696;2022-09-13T11:55:51;21.60;99.50
65692;DHT22;52411;52.716;6.696;2022-09-13T11:58:22;21.40;99.90
65692;DHT22;52411;52.716;6.696;2022-09-13T12:00:59;21.20;99.90
65692;DHT22;52411;52.716;6.696;2022-09-13T12:06:34;21.40;99.80
65692;DHT22;52411;52.716;6.696;2022-09-13T12:09:25;21.60;99.90
65692;DHT22;52411;52.716;6.696;2022-09-13T12:12:12;21.80;99.80
65692;DHT22;52411;52.716;6.696;2022-09-13T12:14:46;21.90;99.40
65692;DHT22;52411;52.716;6.696;2022-09-13T12:17:41;22.00;99.60
65692;DHT22;52411;52.716;6.696;2022-09-13T12:20:35;22.20;99.90
65692;DHT22;52411;52.716;6.696;2022-09-13T12:23:01;22.30;99.80
65692;DHT22;52411;52.716;6.696;2022-09-13T12:25:56;22.10;99.90
65692;DHT22;52411;52.716;6.696;2022-09-13T12:28:38;21.80;98.80
65692;DHT22;52411;52.716;6.696;2022-09-13T12:31:21;21.70;99.20
65692;DHT22;52411;52.716;6.696;2022-09-13T12:33:47;21.80;98.70
65692;DHT22;52411;52.716;6.696;2022-09-13T12:41:55;22.10;98.20
65692;DHT22;52411;52.716;6.696;2022-09-13T12:50:16;22.60;98.40
65692;DHT22;52411;52.716;6.696;2022-09-13T12:53:14;22.50;96.20
65692;DHT22;52411;52.716;6.696;2022-09-13T12:59:01;22.20;96.50
65692;DHT22;52411;52.716;6.696;2022-09-13T13:01:30;22.20;97.00
65692;DHT22;52411;52.716;6.696;2022-09-13T13:04:09;22.10;97.90
65692;DHT22;52411;52.716;6.696;2022-09-13T13:14:54;22.20;97.40
65692;DHT22;52411;52.716;6.696;2022-09-13T13:39:12;22.30;97.00
65692;DHT22;52411;52.716;6.696;2022-09-13T13:42:30;22.40;97.20
65692;DHT22;52411;52.716;6.696;2022-09-13T13:52:50;22.30;95.20
65692;DHT22;52411;52.716;6.696;2022-09-13T13:55:38;22.30;96.60
65692;DHT22;52411;52.716;6.696;2022-09-13T13:58:25;22.20;96.00
65692;DHT22;52411;52.716;6.696;2022-09-13T14:00:53;22.20;94.80
65692;DHT22;52411;52.716;6.696;2022-09-13T14:03:25;22.00;95.60
65692;DHT22;52411;52.716;6.696;2022-09-13T14:06:05;22.00;96.30
65692;DHT22;52411;52.716;6.696;2022-09-13T14:09:01;22.00;97.00
65692;DHT22;52411;52.716;6.696;2022-09-13T14:14:46;22.40;96.00
65692;DHT22;52411;52.716;6.696;2022-09-13T14:20:12;22.30;94.40
65692;DHT22;52411;52.716;6.696;2022-09-13T14:22:40;22.30;95.90
65692;DHT22;52411;52.716;6.696;2022-09-13T14:25:23;22.10;96.60
65692;DHT22;52411;52.716;6.696;2022-09-13T14:27:52;22.00;95.60
65692;DHT22;52411;52.716;6.696;2022-09-13T14:30:23;21.90;96.30
65692;DHT22;52411;52.716;6.696;2022-09-13T14:32:54;21.90;96.60
65692;DHT22;52411;52.716;6.696;2022-09-13T14:37:56;21.70;95.90
65692;DHT22;52411;52.716;6.696;2022-09-13T14:40:33;21.60;97.40
65692;DHT22;52411;52.716;6.696;2022-09-13T14:42:59;21.50;97.10
65692;DHT22;52411;52.716;6.696;2022-09-13T14:45:34;21.50;97.00
65692;DHT22;52411;52.716;6.696;2022-09-13T14:51:19;21.40;97.40
65692;DHT22;52411;52.716;6.696;2022-09-13T14:53:48;21.40;96.50
65692;DHT22;52411;52.716;6.696;2022-09-13T14:56:26;21.50;97.50
65692;DHT22;52411;52.716;6.696;2022-09-13T14:58:59;21.40;97.30
65692;DHT22;52411;52.716;6.696;2022-09-13T15:01:31;21.50;97.80
65692;DHT22;52411;52.716;6.696;2022-09-13T15:03:59;21.60;97.50
65692;DHT22;52411;52.716;6.696;2022-09-13T15:06:28;21.60;97.40
65692;DHT22;52411;52.716;6.696;2022-09-13T15:09:21;21.60;97.00
65692;DHT22;52411;52.716;6.696;2022-09-13T15:14:33;21.40;97.40
65692;DHT22;52411;52.716;6.696;2022-09-13T15:17:10;21.40;96.80
65692;DHT22;52411;52.716;6.696;2022-09-13T15:19:47;21.40;96.70
65692;DHT22;52411;52.716;6.696;2022-09-13T15:22:23;21.60;96.90
65692;DHT22;52411;52.716;6.696;2022-09-13T15:24:55;21.80;95.50
65692;DHT22;52411;52.716;6.696;2022-09-13T15:27:45;22.10;95.80
65692;DHT22;52411;52.716;6.696;2022-09-13T15:30:38;22.50;94.80
65692;DHT22;52411;52.716;6.696;2022-09-13T15:33:33;22.90;94.10
65692;DHT22;52411;52.716;6.696;2022-09-13T15:39:12;23.00;92.60
65692;DHT22;52411;52.716;6.696;2022-09-13T15:41:59;22.70;93.20
65692;DHT22;52411;52.716;6.696;2022-09-13T15:44:28;22.20;94.70
65692;DHT22;52411;52.716;6.696;2022-09-13T15:47:09;22.00;95.50
65692;DHT22;52411;52.716;6.696;2022-09-13T15:49:38;21.90;96.00
65692;DHT22;52411;52.716;6.696;2022-09-13T15:52:04;22.10;96.20
65692;DHT22;52411;52.716;6.696;2022-09-13T15:54:33;22.60;95.30
65692;DHT22;52411;52.716;6.696;2022-09-13T15:56:59;22.90;94.70
65692;DHT22;52411;52.716;6.696;2022-09-13T15:59:25;22.80;94.40
65692;DHT22;52411;52.716;6.696;2022-09-13T16:01:51;22.70;95.00
65692;DHT22;52411;52.716;6.696;2022-09-13T16:04:18;22.60;95.00
65692;DHT22;52411;52.716;6.696;2022-09-13T16:06:44;22.40;94.90
65692;DHT22;52411;52.716;6.696;2022-09-13T16:09:30;22.10;95.20
65692;DHT22;52411;52.716;6.696;2022-09-13T16:11:56;21.80;95.10
65692;DHT22;52411;52.716;6.696;2022-09-13T16:14:21;21.50;95.90
65692;DHT22;52411;52.716;6.696;2022-09-13T16:16:47;21.20;96.50
65692;DHT22;52411;52.716;6.696;2022-09-13T16:19:21;21.00;96.90
65692;DHT22;52411;52.716;6.696;2022-09-13T16:21:47;21.00;96.90
65692;DHT22;52411;52.716;6.696;2022-09-13T16:24:13;20.90;97.10
65692;DHT22;52411;52.716;6.696;2022-09-13T16:26:40;20.80;97.20
65692;DHT22;52411;52.716;6.696;2022-09-13T16:29:06;20.80;97.50
65692;DHT22;52411;52.716;6.696;2022-09-13T16:31:32;20.80;97.50
65692;DHT22;52411;52.716;6.696;2022-09-13T16:33:58;20.70;97.70
65692;DHT22;52411;52.716;6.696;2022-09-13T16:36:23;20.60;97.70
65692;DHT22;52411;52.716;6.696;2022-09-13T16:38:52;20.50;97.60
65692;DHT22;52411;52.716;6.696;2022-09-13T16:41:17;20.40;97.80
65692;DHT22;52411;52.716;6.696;2022-09-13T16:43:43;20.30;97.90
65692;DHT22;52411;52.716;6.696;2022-09-13T16:46:09;20.30;98.10
65692;DHT22;52411;52.716;6.696;2022-09-13T16:48:35;20.20;98.20
65692;DHT22;52411;52.716;6.696;2022-09-13T16:51:06;20.10;98.50
65692;DHT22;52411;52.716;6.696;2022-09-13T16:53:36;20.00;98.90
65692;DHT22;52411;52.716;6.696;2022-09-13T16:56:11;19.80;99.20
65692;DHT22;52411;52.716;6.696;2022-09-13T16:58:38;19.70;99.50
65692;DHT22;52411;52.716;6.696;2022-09-13T17:01:05;19.70;99.40
65692;DHT22;52411;52.716;6.696;2022-09-13T17:03:31;19.60;99.60
65692;DHT22;52411;52.716;6.696;2022-09-13T17:05:58;19.40;99.60
65692;DHT22;52411;52.716;6.696;2022-09-13T17:08:24;19.40;99.80
65692;DHT22;52411;52.716;6.696;2022-09-13T17:10:50;19.30;99.90
65692;DHT22;52411;52.716;6.696;2022-09-13T17:13:16;19.20;99.90
65692;DHT22;52411;52.716;6.696;2022-09-13T17:15:42;19.10;99.90
65692;DHT22;52411;52.716;6.696;2022-09-13T17:18:07;19.00;99.90
65692;DHT22;52411;52.716;6.696;2022-09-13T17:20:33;18.90;99.90
65692;DHT22;52411;52.716;6.696;2022-09-13T17:22:59;18.90;99.90
65692;DHT22;52411;52.716;6.696;2022-09-13T17:25:25;18.70;99.90
65692;DHT22;52411;52.716;6.696;2022-09-13T17:27:51;18.70;99.90
65692;DHT22;52411;52.716;6.696;2022-09-13T17:30:17;18.50;99.90
65692;DHT22;52411;52.716;6.696;2022-09-13T17:32:43;18.40;99.90
65692;DHT22;52411;52.716;6.696;2022-09-13T17:35:09;18.30;99.90
65692;DHT22;52411;52.716;6.696;2022-09-13T17:37:36;18.30;99.90
65692;DHT22;52411;52.716;6.696;2022-09-13T17:40:02;18.20;99.90
65692;DHT22;52411;52.716;6.696;2022-09-13T17:42:27;18.10;99.90
65692;DHT22;52411;52.716;6.696;2022-09-13T17:44:53;18.00;99.90
65692;DHT22;52411;52.716;6.696;2022-09-13T17:47:19;17.90;99.90
65692;DHT22;52411;52.716;6.696;2022-09-13T17:49:44;17.80;99.90
65692;DHT22;52411;52.716;6.696;2022-09-13T17:52:12;17.80;99.90
65692;DHT22;52411;52.716;6.696;2022-09-13T17:54:38;17.70;99.90
65692;DHT22;52411;52.716;6.696;2022-09-13T17:57:03;17.60;99.90
65692;DHT22;52411;52.716;6.696;2022-09-13T17:59:29;17.60;99.90
65692;DHT22;52411;52.716;6.696;2022-09-13T18:01:56;17.60;99.90
65692;DHT22;52411;52.716;6.696;2022-09-13T18:04:25;17.60;99.90
65692;DHT22;52411;52.716;6.696;2022-09-13T18:06:51;17.60;99.90
65692;DHT22;52411;52.716;6.696;2022-09-13T18:09:18;17.50;99.90
65692;DHT22;52411;52.716;6.696;2022-09-13T18:11:44;17.40;99.90
65692;DHT22;52411;52.716;6.696;2022-09-13T18:14:12;17.40;99.90
65692;DHT22;52411;52.716;6.696;2022-09-13T18:16:38;17.30;99.90
65692;DHT22;52411;52.716;6.696;2022-09-13T18:19:04;17.40;99.90
65692;DHT22;52411;52.716;6.696;2022-09-13T18:21:30;17.30;99.90
65692;DHT22;52411;52.716;6.696;2022-09-13T18:23:58;17.30;99.90
65692;DHT22;52411;52.716;6.696;2022-09-13T18:26:25;17.20;99.90
65692;DHT22;52411;52.716;6.696;2022-09-13T18:28:59;17.20;99.90
65692;DHT22;52411;52.716;6.696;2022-09-13T18:31:30;17.00;99.90
65692;DHT22;52411;52.716;6.696;2022-09-13T18:33:58;16.90;99.90
65692;DHT22;52411;52.716;6.696;2022-09-13T18:36:25;16.90;99.90
65692;DHT22;52411;52.716;6.696;2022-09-13T18:38:51;16.80;99.90
65692;DHT22;52411;52.716;6.696;2022-09-13T18:41:24;16.70;99.90
65692;DHT22;52411;52.716;6.696;2022-09-13T18:43:52;16.70;99.90
65692;DHT22;52411;52.716;6.696;2022-09-13T18:46:20;16.60;99.90